Time,TemperatureF,DewpointF,PressureIn,WindDirection,WindDirectionDegrees,WindSpeedMPH,WindSpeedGustMPH,Humidity,HourlyPrecipIn,Conditions,Clouds,dailyrainin,SoftwareType,DateUTC
2013-08-18 00:04:00,72.7,67.6,30.02,NE,35,8.0,8.0,84,0.00,,,0.00,VWS V14.01,2013-08-18 10:04:00,
2013-08-18 00:09:00,72.6,67.8,30.02,NNE,12,13.0,13.0,85,0.00,,,0.00,VWS V14.01,2013-08-18 10:09:00,
2013-08-18 00:14:00,72.5,67.7,30.01,NE,52,5.0,7.0,85,0.00,,,0.00,VWS V14.01,2013-08-18 10:14:00,
2013-08-18 00:20:00,72.6,67.8,30.01,NNE,30,7.0,7.0,85,0.00,,,0.00,VWS V14.01,2013-08-18 10:20:00,
2013-08-18 00:25:00,72.6,67.8,30.01,NNE,18,9.0,9.0,85,0.00,,,0.00,VWS V14.01,2013-08-18 10:25:00,
2013-08-18 00:30:00,72.7,67.9,30.00,NE,52,13.0,14.0,85,0.00,,,0.00,VWS V14.01,2013-08-18 10:30:00,
2013-08-18 00:35:00,72.7,67.9,30.00,NNE,29,9.0,9.0,85,0.00,,,0.00,VWS V14.01,2013-08-18 10:35:00,
2013-08-18 00:40:00,72.8,67.7,30.00,NE,42,9.0,9.0,84,0.00,,,0.00,VWS V14.01,2013-08-18 10:40:00,
2013-08-18 00:45:00,72.8,67.7,30.00,North,5,13.0,18.0,84,0.00,,,0.00,VWS V14.01,2013-08-18 10:45:00,
2013-08-18 00:50:00,72.8,67.7,30.00,NNE,18,13.0,13.0,84,0.00,,,0.00,VWS V14.01,2013-08-18 10:50:00,
2013-08-18 00:55:00,72.6,67.8,30.00,East,83,9.0,9.0,85,0.00,,,0.00,VWS V14.01,2013-08-18 10:55:00,
2013-08-18 01:00:00,72.3,67.5,30.00,NE,47,7.0,10.0,85,0.00,,,0.00,VWS V14.01,2013-08-18 11:00:00,
2013-08-18 01:05:00,72.2,67.4,30.00,NE,47,12.0,12.0,85,0.00,,,0.00,VWS V14.01,2013-08-18 11:05:00,
2013-08-18 01:11:00,72.2,66.8,30.00,NNE,33,11.0,11.0,83,0.00,,,0.00,VWS V14.01,2013-08-18 11:11:00,
2013-08-18 01:16:00,72.2,66.8,30.00,NNE,31,11.0,17.0,83,0.00,,,0.00,VWS V14.01,2013-08-18 11:16:00,
2013-08-18 01:21:00,72.4,66.9,29.99,NNE,21,14.0,15.0,83,0.00,,,0.00,VWS V14.01,2013-08-18 11:21:00,
2013-08-18 01:26:00,72.5,67.1,29.99,NNE,19,11.0,13.0,83,0.00,,,0.00,VWS V14.01,2013-08-18 11:26:00,
2013-08-18 01:31:00,72.6,67.2,29.99,NNE,23,13.0,14.0,83,0.00,,,0.00,VWS V14.01,2013-08-18 11:31:00,
2013-08-18 01:36:00,72.6,67.2,29.99,NE,35,14.0,14.0,83,0.00,,,0.00,VWS V14.01,2013-08-18 11:36:00,
2013-08-18 01:41:00,72.6,67.5,29.99,East,85,8.0,10.0,84,0.00,,,0.00,VWS V14.01,2013-08-18 11:41:00,
2013-08-18 01:46:00,72.6,67.5,29.99,NNE,33,18.0,25.0,84,0.00,,,0.00,VWS V14.01,2013-08-18 11:46:00,
2013-08-18 01:51:00,72.5,67.4,29.98,NE,42,10.0,15.0,84,0.00,,,0.00,VWS V14.01,2013-08-18 11:51:00,
2013-08-18 01:56:00,72.4,67.3,29.99,NNE,21,17.0,17.0,84,0.00,,,0.00,VWS V14.01,2013-08-18 11:56:00,
2013-08-18 02:02:00,72.4,67.6,29.98,NNE,29,6.0,10.0,85,0.00,,,0.00,VWS V14.01,2013-08-18 12:02:00,
2013-08-18 02:07:00,72.4,67.3,29.98,ENE,57,7.0,7.0,84,0.00,,,0.00,VWS V14.01,2013-08-18 12:07:00,
2013-08-18 02:12:00,72.5,67.4,29.98,NNE,13,10.0,14.0,84,0.00,,,0.00,VWS V14.01,2013-08-18 12:12:00,
2013-08-18 02:17:00,72.5,67.4,29.97,ENE,57,11.0,12.0,84,0.00,,,0.00,VWS V14.01,2013-08-18 12:17:00,
2013-08-18 02:22:00,72.3,67.2,29.98,ENE,64,17.0,22.0,84,0.00,,,0.00,VWS V14.01,2013-08-18 12:22:00,
2013-08-18 02:27:00,72.2,67.1,29.98,NNE,27,9.0,13.0,84,0.00,,,0.00,VWS V14.01,2013-08-18 12:27:00,
2013-08-18 02:32:00,72.1,67.0,29.97,NNE,24,10.0,17.0,84,0.00,,,0.00,VWS V14.01,2013-08-18 12:32:00,
2013-08-18 02:37:00,72.1,67.0,29.97,NE,36,8.0,9.0,84,0.00,,,0.00,VWS V14.01,2013-08-18 12:37:00,
2013-08-18 02:42:00,72.2,66.8,29.97,NE,52,7.0,23.0,83,0.00,,,0.00,VWS V14.01,2013-08-18 12:42:00,
2013-08-18 02:47:00,72.4,66.9,29.96,NNE,15,10.0,12.0,83,0.00,,,0.00,VWS V14.01,2013-08-18 12:47:00,
2013-08-18 02:53:00,72.6,66.8,29.96,North,7,9.0,15.0,82,0.00,,,0.00,VWS V14.01,2013-08-18 12:53:00,
2013-08-18 02:58:00,72.4,66.6,29.97,ENE,57,14.0,14.0,82,0.00,,,0.00,VWS V14.01,2013-08-18 12:58:00,
2013-08-18 03:03:00,72.3,66.8,29.97,NE,42,7.0,10.0,83,0.00,,,0.00,VWS V14.01,2013-08-18 13:03:00,
2013-08-18 03:08:00,72.2,66.8,29.96,NNE,27,11.0,11.0,83,0.00,,,0.00,VWS V14.01,2013-08-18 13:08:00,
2013-08-18 03:13:00,72.3,66.5,29.96,NE,40,7.0,8.0,82,0.00,,,0.00,VWS V14.01,2013-08-18 13:13:00,
2013-08-18 03:18:00,72.4,66.6,29.96,NE,51,12.0,12.0,82,0.00,,,0.00,VWS V14.01,2013-08-18 13:18:00,
2013-08-18 03:23:00,72.4,66.6,29.96,NNE,23,8.0,11.0,82,0.00,,,0.00,VWS V14.01,2013-08-18 13:23:00,
2013-08-18 03:28:00,72.3,66.5,29.96,NE,56,6.0,13.0,82,0.00,,,0.00,VWS V14.01,2013-08-18 13:28:00,
2013-08-18 03:33:00,72.0,65.9,29.96,NNE,31,12.0,14.0,81,0.00,,,0.00,VWS V14.01,2013-08-18 13:33:00,
2013-08-18 03:39:00,72.1,66.3,29.96,NE,48,9.0,9.0,82,0.00,,,0.00,VWS V14.01,2013-08-18 13:39:00,
2013-08-18 03:44:00,72.2,66.4,29.96,North,5,13.0,13.0,82,0.00,,,0.00,VWS V14.01,2013-08-18 13:44:00,
2013-08-18 03:49:00,72.3,66.5,29.96,NNE,16,11.0,13.0,82,0.00,,,0.00,VWS V14.01,2013-08-18 13:49:00,
2013-08-18 03:54:00,72.4,66.2,29.95,North,350,12.0,12.0,81,0.00,,,0.00,VWS V14.01,2013-08-18 13:54:00,
2013-08-18 03:59:00,72.4,66.2,29.95,North,8,15.0,18.0,81,0.00,,,0.00,VWS V14.01,2013-08-18 13:59:00,
2013-08-18 04:04:00,72.3,66.5,29.95,NE,37,10.0,12.0,82,0.00,,,0.00,VWS V14.01,2013-08-18 14:04:00,
2013-08-18 04:09:00,72.3,66.5,29.96,NNE,31,11.0,11.0,82,0.00,,,0.00,VWS V14.01,2013-08-18 14:09:00,
2013-08-18 04:14:00,72.2,66.4,29.96,NE,45,8.0,8.0,82,0.00,,,0.00,VWS V14.01,2013-08-18 14:14:00,
2013-08-18 04:19:00,72.1,66.3,29.96,NE,42,11.0,13.0,82,0.00,,,0.00,VWS V14.01,2013-08-18 14:19:00,
2013-08-18 04:25:00,72.1,66.3,29.96,NNE,31,11.0,15.0,82,0.00,,,0.00,VWS V14.01,2013-08-18 14:25:00,
2013-08-18 04:30:00,72.1,66.3,29.96,North,9,14.0,14.0,82,0.00,,,0.00,VWS V14.01,2013-08-18 14:30:00,
2013-08-18 04:35:00,72.1,66.7,29.96,ENE,58,12.0,13.0,83,0.00,,,0.00,VWS V14.01,2013-08-18 14:35:00,
2013-08-18 04:40:00,72.1,66.7,29.96,NE,45,8.0,11.0,83,0.00,,,0.00,VWS V14.01,2013-08-18 14:40:00,
2013-08-18 04:45:00,72.1,66.7,29.96,NNE,26,13.0,14.0,83,0.00,,,0.00,VWS V14.01,2013-08-18 14:45:00,
2013-08-18 04:50:00,72.1,66.7,29.96,NNE,23,6.0,14.0,83,0.00,,,0.00,VWS V14.01,2013-08-18 14:50:00,
2013-08-18 04:55:00,72.0,66.6,29.96,NNE,29,6.0,6.0,83,0.00,,,0.00,VWS V14.01,2013-08-18 14:55:00,
2013-08-18 05:00:00,71.9,66.1,29.96,NNE,33,9.0,9.0,82,0.00,,,0.00,VWS V14.01,2013-08-18 15:00:00,
2013-08-18 05:05:00,72.0,66.6,29.96,NE,54,15.0,17.0,83,0.00,,,0.00,VWS V14.01,2013-08-18 15:05:00,
2013-08-18 05:11:00,72.0,66.6,29.96,NNE,22,7.0,8.0,83,0.00,,,0.00,VWS V14.01,2013-08-18 15:11:00,
2013-08-18 05:16:00,72.1,67.0,29.96,NE,50,11.0,14.0,84,0.00,,,0.00,VWS V14.01,2013-08-18 15:16:00,
2013-08-18 05:21:00,72.1,67.0,29.96,NE,40,11.0,12.0,84,0.00,,,0.00,VWS V14.01,2013-08-18 15:21:00,
2013-08-18 05:26:00,72.2,67.1,29.96,NNE,19,14.0,14.0,84,0.00,,,0.00,VWS V14.01,2013-08-18 15:26:00,
2013-08-18 05:31:00,72.2,66.8,29.96,NNE,21,10.0,15.0,83,0.00,,,0.00,VWS V14.01,2013-08-18 15:31:00,
2013-08-18 05:36:00,72.3,66.8,29.96,NE,55,15.0,15.0,83,0.00,,,0.00,VWS V14.01,2013-08-18 15:36:00,
2013-08-18 05:41:00,72.1,66.3,29.97,North,356,16.0,16.0,82,0.00,,,0.00,VWS V14.01,2013-08-18 15:41:00,
2013-08-18 05:46:00,72.0,65.9,29.97,NNE,12,14.0,14.0,81,0.00,,,0.00,VWS V14.01,2013-08-18 15:46:00,
2013-08-18 05:51:00,72.1,66.3,29.97,ENE,57,10.0,10.0,82,0.00,,,0.00,VWS V14.01,2013-08-18 15:51:00,
2013-08-18 05:56:00,72.2,66.8,29.97,NNE,23,7.0,7.0,83,0.00,,,0.00,VWS V14.01,2013-08-18 15:56:00,
2013-08-18 06:01:00,72.4,67.3,29.97,East,88,15.0,15.0,84,0.00,,,0.00,VWS V14.01,2013-08-18 16:01:00,
2013-08-18 06:06:00,72.5,67.4,29.97,NNE,33,8.0,9.0,84,0.00,,,0.00,VWS V14.01,2013-08-18 16:06:00,
2013-08-18 06:11:00,72.5,67.4,29.97,NE,47,9.0,10.0,84,0.00,,,0.00,VWS V14.01,2013-08-18 16:11:00,
2013-08-18 06:16:00,72.4,67.3,29.97,NE,34,7.0,10.0,84,0.00,,,0.00,VWS V14.01,2013-08-18 16:16:00,
2013-08-18 06:21:00,72.5,67.7,29.97,NE,41,11.0,12.0,85,0.00,,,0.00,VWS V14.01,2013-08-18 16:21:00,
2013-08-18 06:26:00,72.7,67.6,29.97,NNE,19,8.0,15.0,84,0.00,,,0.00,VWS V14.01,2013-08-18 16:26:00,
2013-08-18 06:31:00,72.9,67.8,29.98,NE,48,10.0,10.0,84,0.00,,,0.00,VWS V14.01,2013-08-18 16:31:00,
2013-08-18 06:36:00,72.9,67.8,29.98,NE,55,12.0,14.0,84,0.00,,,0.00,VWS V14.01,2013-08-18 16:36:00,
2013-08-18 06:41:00,72.9,67.8,29.98,NE,35,10.0,13.0,84,0.00,,,0.00,VWS V14.01,2013-08-18 16:41:00,
2013-08-18 06:46:00,73.0,67.9,29.99,NE,54,9.0,10.0,84,0.00,,,0.00,VWS V14.01,2013-08-18 16:46:00,
2013-08-18 06:51:00,73.1,68.0,29.99,NE,51,13.0,14.0,84,0.00,,,0.00,VWS V14.01,2013-08-18 16:51:00,
2013-08-18 06:55:00,73.1,68.0,29.99,NE,40,7.0,7.0,84,0.00,,,0.00,VWS V14.01,2013-08-18 16:55:00,
2013-08-18 07:00:00,73.3,68.2,29.99,NE,38,14.0,14.0,84,0.00,,,0.00,VWS V14.01,2013-08-18 17:00:00,
2013-08-18 07:05:00,73.3,68.2,29.99,NNE,22,9.0,10.0,84,0.00,,,0.00,VWS V14.01,2013-08-18 17:05:00,
2013-08-18 07:11:00,73.5,68.0,29.99,NE,52,10.0,14.0,83,0.00,,,0.00,VWS V14.01,2013-08-18 17:11:00,
2013-08-18 07:16:00,73.3,68.5,29.99,NE,54,11.0,13.0,85,0.00,,,0.00,VWS V14.01,2013-08-18 17:16:00,
2013-08-18 07:21:00,73.5,68.4,30.00,NNE,21,13.0,13.0,84,0.00,,,0.00,VWS V14.01,2013-08-18 17:21:00,
2013-08-18 07:26:00,73.7,68.6,30.00,NE,38,8.0,12.0,84,0.00,,,0.00,VWS V14.01,2013-08-18 17:26:00,
2013-08-18 07:31:00,74.0,69.2,30.00,NE,43,8.0,8.0,85,0.00,,,0.00,VWS V14.01,2013-08-18 17:31:00,
2013-08-18 07:36:00,74.4,69.3,30.00,NE,38,10.0,10.0,84,0.00,,,0.00,VWS V14.01,2013-08-18 17:36:00,
2013-08-18 07:41:00,74.2,69.1,30.00,NE,56,9.0,9.0,84,0.00,,,0.00,VWS V14.01,2013-08-18 17:41:00,
2013-08-18 07:46:00,74.6,69.4,30.00,East,86,11.0,11.0,84,0.00,,,0.00,VWS V14.01,2013-08-18 17:46:00,
2013-08-18 07:51:00,74.7,69.2,30.00,ENE,76,14.0,17.0,83,0.00,,,0.00,VWS V14.01,2013-08-18 17:51:00,
2013-08-18 07:56:00,74.5,69.0,30.00,ENE,68,9.0,9.0,83,0.00,,,0.00,VWS V14.01,2013-08-18 17:56:00,
2013-08-18 08:01:00,74.7,69.6,30.00,East,83,18.0,18.0,84,0.00,,,0.00,VWS V14.01,2013-08-18 18:01:00,
2013-08-18 08:06:00,75.0,69.1,30.00,East,79,10.0,12.0,82,0.00,,,0.00,VWS V14.01,2013-08-18 18:06:00,
2013-08-18 08:11:00,74.9,69.4,30.00,ESE,123,11.0,11.0,83,0.00,,,0.00,VWS V14.01,2013-08-18 18:11:00,
2013-08-18 08:16:00,75.7,69.8,30.00,ENE,57,7.0,8.0,82,0.00,,,0.00,VWS V14.01,2013-08-18 18:16:00,
2013-08-18 08:21:00,75.7,69.1,30.01,East,94,9.0,9.0,80,0.00,,,0.00,VWS V14.01,2013-08-18 18:21:00,
2013-08-18 08:26:00,75.3,68.7,30.01,East,87,12.0,15.0,80,0.00,,,0.00,VWS V14.01,2013-08-18 18:26:00,
2013-08-18 08:31:00,75.7,70.2,30.01,ENE,64,8.0,11.0,83,0.00,,,0.00,VWS V14.01,2013-08-18 18:31:00,
2013-08-18 08:36:00,75.6,69.4,30.01,NE,53,12.0,12.0,81,0.00,,,0.00,VWS V14.01,2013-08-18 18:36:00,
2013-08-18 08:41:00,75.5,69.6,30.01,NE,47,15.0,15.0,82,0.00,,,0.00,VWS V14.01,2013-08-18 18:41:00,
2013-08-18 08:46:00,75.1,69.6,30.01,East,94,12.0,18.0,83,0.00,,,0.00,VWS V14.01,2013-08-18 18:46:00,
2013-08-18 08:51:00,75.8,70.3,30.01,East,80,10.0,12.0,83,0.00,,,0.00,VWS V14.01,2013-08-18 18:51:00,
2013-08-18 08:56:00,76.1,69.8,30.01,ENE,66,14.0,14.0,81,0.00,,,0.00,VWS V14.01,2013-08-18 18:56:00,
2013-08-18 09:01:00,76.2,69.9,30.01,ENE,68,17.0,17.0,81,0.00,,,0.00,VWS V14.01,2013-08-18 19:01:00,
2013-08-18 09:06:00,76.0,69.8,30.01,NE,40,11.0,11.0,81,0.00,,,0.00,VWS V14.01,2013-08-18 19:06:00,
2013-08-18 09:11:00,75.8,69.2,30.01,NE,52,8.0,11.0,80,0.00,,,0.00,VWS V14.01,2013-08-18 19:11:00,
2013-08-18 09:16:00,75.7,68.7,30.01,NE,55,7.0,7.0,79,0.00,,,0.00,VWS V14.01,2013-08-18 19:16:00,
2013-08-18 09:21:00,76.1,68.8,30.01,ENE,62,9.0,11.0,78,0.00,,,0.00,VWS V14.01,2013-08-18 19:21:00,
2013-08-18 09:26:00,76.6,69.2,30.01,ENE,60,17.0,17.0,78,0.00,,,0.00,VWS V14.01,2013-08-18 19:26:00,
2013-08-18 09:31:00,76.6,69.6,30.01,ENE,69,10.0,18.0,79,0.00,,,0.00,VWS V14.01,2013-08-18 19:31:00,
2013-08-18 09:36:00,77.0,70.0,30.01,East,85,12.0,16.0,79,0.00,,,0.00,VWS V14.01,2013-08-18 19:36:00,
2013-08-18 09:41:00,77.0,70.4,30.01,East,96,12.0,12.0,80,0.00,,,0.00,VWS V14.01,2013-08-18 19:41:00,
2013-08-18 09:46:00,76.9,70.3,30.01,East,93,15.0,15.0,80,0.00,,,0.00,VWS V14.01,2013-08-18 19:46:00,
2013-08-18 09:51:00,77.0,69.6,30.01,East,84,12.0,15.0,78,0.00,,,0.00,VWS V14.01,2013-08-18 19:51:00,
2013-08-18 09:56:00,77.0,68.9,30.02,ENE,67,16.0,16.0,76,0.00,,,0.00,VWS V14.01,2013-08-18 19:56:00,
2013-08-18 10:01:00,77.0,69.6,30.02,East,94,9.0,9.0,78,0.00,,,0.00,VWS V14.01,2013-08-18 20:01:00,
2013-08-18 10:06:00,77.3,70.3,30.02,ENE,64,5.0,8.0,79,0.00,,,0.00,VWS V14.01,2013-08-18 20:06:00,
2013-08-18 10:11:00,77.2,69.4,30.02,ENE,65,14.0,18.0,77,0.00,,,0.00,VWS V14.01,2013-08-18 20:11:00,
2013-08-18 10:16:00,77.0,70.0,30.02,ESE,104,14.0,14.0,79,0.00,,,0.00,VWS V14.01,2013-08-18 20:16:00,
2013-08-18 10:21:00,77.4,70.0,30.02,East,97,14.0,14.0,78,0.00,,,0.00,VWS V14.01,2013-08-18 20:21:00,
2013-08-18 10:26:00,77.4,69.6,30.02,ESE,104,14.0,15.0,77,0.00,,,0.00,VWS V14.01,2013-08-18 20:26:00,
2013-08-18 10:31:00,77.2,70.2,30.02,ENE,57,13.0,13.0,79,0.00,,,0.00,VWS V14.01,2013-08-18 20:31:00,
2013-08-18 10:36:00,77.2,70.2,30.02,East,82,16.0,19.0,79,0.00,,,0.00,VWS V14.01,2013-08-18 20:36:00,
2013-08-18 10:41:00,77.4,69.6,30.02,ENE,67,18.0,19.0,77,0.00,,,0.00,VWS V14.01,2013-08-18 20:41:00,
2013-08-18 10:46:00,77.7,69.9,30.02,ESE,113,16.0,16.0,77,0.00,,,0.00,VWS V14.01,2013-08-18 20:46:00,
2013-08-18 10:51:00,78.3,69.3,30.02,ESE,107,13.0,13.0,74,0.00,,,0.00,VWS V14.01,2013-08-18 20:51:00,
2013-08-18 10:56:00,77.6,69.1,30.02,NE,54,17.0,17.0,75,0.00,,,0.00,VWS V14.01,2013-08-18 20:56:00,
2013-08-18 11:01:00,77.5,69.0,30.01,East,100,8.0,10.0,75,0.00,,,0.00,VWS V14.01,2013-08-18 21:01:00,
2013-08-18 11:06:00,77.6,69.4,30.01,ESE,120,20.0,21.0,76,0.00,,,0.00,VWS V14.01,2013-08-18 21:06:00,
2013-08-18 11:11:00,77.4,69.6,30.01,NE,52,10.0,12.0,77,0.00,,,0.00,VWS V14.01,2013-08-18 21:11:00,
2013-08-18 11:16:00,77.7,69.2,30.01,East,79,14.0,20.0,75,0.00,,,0.00,VWS V14.01,2013-08-18 21:16:00,
2013-08-18 11:21:00,77.8,69.2,30.01,ESE,110,18.0,24.0,75,0.00,,,0.00,VWS V14.01,2013-08-18 21:21:00,
2013-08-18 11:26:00,78.3,69.3,30.01,ESE,105,16.0,17.0,74,0.00,,,0.00,VWS V14.01,2013-08-18 21:26:00,
2013-08-18 11:31:00,78.5,69.5,30.01,ENE,62,9.0,15.0,74,0.00,,,0.00,VWS V14.01,2013-08-18 21:31:00,
2013-08-18 11:36:00,78.0,69.8,30.01,ENE,72,11.0,18.0,76,0.00,,,0.00,VWS V14.01,2013-08-18 21:36:00,
2013-08-18 11:41:00,78.0,69.8,30.01,East,87,9.0,11.0,76,0.00,,,0.00,VWS V14.01,2013-08-18 21:41:00,
2013-08-18 11:46:00,77.8,69.2,30.01,NE,56,13.0,15.0,75,0.00,,,0.00,VWS V14.01,2013-08-18 21:46:00,
2013-08-18 11:51:00,77.9,69.7,30.01,ENE,74,11.0,11.0,76,0.00,,,0.00,VWS V14.01,2013-08-18 21:51:00,
2013-08-18 11:57:00,78.2,69.6,30.00,East,80,17.0,17.0,75,0.00,,,0.00,VWS V14.01,2013-08-18 21:57:00,
2013-08-18 12:02:00,78.5,69.5,30.01,East,89,12.0,13.0,74,0.00,,,0.00,VWS V14.01,2013-08-18 22:02:00,
2013-08-18 12:07:00,78.0,69.1,30.00,NE,55,8.0,12.0,74,0.00,,,0.00,VWS V14.01,2013-08-18 22:07:00,
2013-08-18 12:12:00,78.0,69.4,30.00,ENE,73,13.0,18.0,75,0.00,,,0.00,VWS V14.01,2013-08-18 22:12:00,
2013-08-18 12:17:00,78.1,68.8,30.00,ESE,102,18.0,18.0,73,0.00,,,0.00,VWS V14.01,2013-08-18 22:17:00,
2013-08-18 12:22:00,77.7,69.2,30.00,ENE,59,12.0,12.0,75,0.00,,,0.00,VWS V14.01,2013-08-18 22:22:00,
2013-08-18 12:27:00,78.0,69.1,29.99,NE,52,11.0,13.0,74,0.00,,,0.00,VWS V14.01,2013-08-18 22:27:00,
2013-08-18 12:32:00,78.3,69.3,29.99,NE,52,13.0,13.0,74,0.00,,,0.00,VWS V14.01,2013-08-18 22:32:00,
2013-08-18 12:37:00,78.5,69.9,29.99,East,100,12.0,16.0,75,0.00,,,0.00,VWS V14.01,2013-08-18 22:37:00,
2013-08-18 12:42:00,78.6,70.0,29.99,ENE,58,17.0,17.0,75,0.00,,,0.00,VWS V14.01,2013-08-18 22:42:00,
2013-08-18 12:47:00,78.7,69.3,29.99,ENE,74,10.0,14.0,73,0.00,,,0.00,VWS V14.01,2013-08-18 22:47:00,
2013-08-18 12:52:00,78.7,68.1,29.99,East,93,11.0,16.0,70,0.00,,,0.00,VWS V14.01,2013-08-18 22:52:00,
2013-08-18 12:57:00,78.0,69.4,29.99,ENE,76,10.0,14.0,75,0.00,,,0.00,VWS V14.01,2013-08-18 22:57:00,
2013-08-18 13:02:00,78.5,70.3,29.99,ESE,113,20.0,23.0,76,0.00,,,0.00,VWS V14.01,2013-08-18 23:02:00,
2013-08-18 13:07:00,77.9,69.7,29.99,NE,51,10.0,12.0,76,0.00,,,0.00,VWS V14.01,2013-08-18 23:07:00,
2013-08-18 13:12:00,77.2,69.4,29.99,NE,56,16.0,18.0,77,0.00,,,0.00,VWS V14.01,2013-08-18 23:12:00,
2013-08-18 13:17:00,77.2,68.3,29.98,East,97,15.0,17.0,74,0.00,,,0.00,VWS V14.01,2013-08-18 23:17:00,
2013-08-18 13:22:00,77.4,67.3,29.98,ENE,71,12.0,12.0,71,0.00,,,0.00,VWS V14.01,2013-08-18 23:22:00,
2013-08-18 13:27:00,77.2,67.5,29.98,ENE,65,15.0,19.0,72,0.00,,,0.00,VWS V14.01,2013-08-18 23:27:00,
2013-08-18 13:32:00,77.5,66.9,29.97,NE,56,8.0,13.0,70,0.00,,,0.00,VWS V14.01,2013-08-18 23:32:00,
2013-08-18 13:37:00,77.0,67.3,29.97,NE,54,11.0,16.0,72,0.00,,,0.00,VWS V14.01,2013-08-18 23:37:00,
2013-08-18 13:42:00,77.0,66.9,29.97,East,99,14.0,14.0,71,0.00,,,0.00,VWS V14.01,2013-08-18 23:42:00,
2013-08-18 13:47:00,76.7,68.2,29.97,NE,55,10.0,10.0,75,0.00,,,0.00,VWS V14.01,2013-08-18 23:47:00,
2013-08-18 13:52:00,76.4,68.3,29.97,East,82,8.0,9.0,76,0.00,,,0.00,VWS V14.01,2013-08-18 23:52:00,
2013-08-18 13:57:00,76.4,68.7,29.96,NNE,13,10.0,13.0,77,0.00,,,0.00,VWS V14.01,2013-08-18 23:57:00,
2013-08-18 14:02:00,76.5,68.4,29.96,NNE,25,7.0,7.0,76,0.00,,,0.00,VWS V14.01,2013-08-19 00:02:00,
2013-08-18 14:07:00,76.5,68.0,29.96,NNE,23,5.0,9.0,75,0.00,,,0.00,VWS V14.01,2013-08-19 00:07:00,
2013-08-18 14:12:00,76.6,68.1,29.96,NNW,327,12.0,12.0,75,0.00,,,0.00,VWS V14.01,2013-08-19 00:12:00,
2013-08-18 14:17:00,77.5,67.8,29.96,North,5,7.0,11.0,72,0.00,,,0.00,VWS V14.01,2013-08-19 00:17:00,
2013-08-18 14:22:00,77.5,67.4,29.96,North,353,11.0,17.0,71,0.00,,,0.00,VWS V14.01,2013-08-19 00:22:00,
2013-08-18 14:27:00,77.3,67.6,29.95,NW,322,23.0,23.0,72,0.00,,,0.00,VWS V14.01,2013-08-19 00:27:00,
2013-08-18 14:32:00,77.0,67.3,29.95,NE,47,7.0,11.0,72,0.00,,,0.00,VWS V14.01,2013-08-19 00:32:00,
2013-08-18 14:37:00,77.1,67.8,29.95,North,11,11.0,13.0,73,0.00,,,0.00,VWS V14.01,2013-08-19 00:37:00,
2013-08-18 14:42:00,77.1,67.8,29.95,NNE,14,10.0,16.0,73,0.00,,,0.00,VWS V14.01,2013-08-19 00:42:00,
2013-08-18 14:47:00,76.7,67.4,29.95,North,9,15.0,18.0,73,0.00,,,0.00,VWS V14.01,2013-08-19 00:47:00,
2013-08-18 14:52:00,76.4,67.5,29.95,East,87,7.0,9.0,74,0.00,,,0.00,VWS V14.01,2013-08-19 00:52:00,
2013-08-18 14:58:00,76.5,67.6,29.95,NNE,32,10.0,11.0,74,0.00,,,0.00,VWS V14.01,2013-08-19 00:58:00,
2013-08-18 15:03:00,76.3,67.4,29.95,NNE,19,8.0,9.0,74,0.00,,,0.00,VWS V14.01,2013-08-19 01:03:00,
2013-08-18 15:08:00,76.1,67.6,29.95,NNE,16,10.0,10.0,75,0.00,,,0.00,VWS V14.01,2013-08-19 01:08:00,
2013-08-18 15:13:00,76.4,67.9,29.95,ENE,76,7.0,15.0,75,0.00,,,0.00,VWS V14.01,2013-08-19 01:13:00,
2013-08-18 15:18:00,76.4,67.9,29.95,North,354,8.0,10.0,75,0.00,,,0.00,VWS V14.01,2013-08-19 01:18:00,
2013-08-18 15:23:00,76.2,68.1,29.95,ENE,59,4.0,7.0,76,0.00,,,0.00,VWS V14.01,2013-08-19 01:23:00,
2013-08-18 15:28:00,76.1,67.6,29.94,NNE,31,6.0,8.0,75,0.00,,,0.00,VWS V14.01,2013-08-19 01:28:00,
2013-08-18 15:33:00,76.2,67.3,29.94,NNW,338,12.0,12.0,74,0.00,,,0.00,VWS V14.01,2013-08-19 01:33:00,
2013-08-18 15:38:00,76.6,67.7,29.94,North,9,17.0,17.0,74,0.00,,,0.00,VWS V14.01,2013-08-19 01:38:00,
2013-08-18 15:43:00,76.5,67.2,29.95,NE,34,12.0,13.0,73,0.00,,,0.00,VWS V14.01,2013-08-19 01:43:00,
2013-08-18 15:48:00,76.4,67.1,29.95,ENE,57,7.0,11.0,73,0.00,,,0.00,VWS V14.01,2013-08-19 01:48:00,
2013-08-18 15:53:00,76.3,67.4,29.95,North,359,11.0,11.0,74,0.00,,,0.00,VWS V14.01,2013-08-19 01:53:00,
2013-08-18 15:58:00,76.6,67.3,29.95,NNE,25,14.0,16.0,73,0.00,,,0.00,VWS V14.01,2013-08-19 01:58:00,
2013-08-18 16:03:00,76.4,67.1,29.95,NE,42,4.0,5.0,73,0.00,,,0.00,VWS V14.01,2013-08-19 02:03:00,
2013-08-18 16:08:00,76.9,67.2,29.95,NW,314,9.0,12.0,72,0.00,,,0.00,VWS V14.01,2013-08-19 02:08:00,
2013-08-18 16:13:00,76.6,66.9,29.94,NNE,14,11.0,12.0,72,0.00,,,0.00,VWS V14.01,2013-08-19 02:13:00,
2013-08-18 16:19:00,76.7,67.0,29.94,NNW,334,6.0,6.0,72,0.00,,,0.00,VWS V14.01,2013-08-19 02:19:00,
2013-08-18 16:24:00,77.2,67.5,29.94,NNE,22,5.0,7.0,72,0.00,,,0.00,VWS V14.01,2013-08-19 02:24:00,
2013-08-18 16:29:00,77.4,67.7,29.94,ENE,64,6.0,6.0,72,0.00,,,0.00,VWS V14.01,2013-08-19 02:29:00,
2013-08-18 16:34:00,77.3,67.2,29.94,NNE,19,14.0,14.0,71,0.00,,,0.00,VWS V14.01,2013-08-19 02:34:00,
2013-08-18 16:39:00,76.9,67.6,29.95,NE,45,9.0,9.0,73,0.00,,,0.00,VWS V14.01,2013-08-19 02:39:00,
2013-08-18 16:44:00,76.6,67.3,29.94,North,8,18.0,18.0,73,0.00,,,0.00,VWS V14.01,2013-08-19 02:44:00,
2013-08-18 16:49:00,76.5,66.8,29.94,ENE,59,9.0,11.0,72,0.00,,,0.00,VWS V14.01,2013-08-19 02:49:00,
2013-08-18 16:54:00,76.5,67.2,29.94,NNE,33,10.0,12.0,73,0.00,,,0.00,VWS V14.01,2013-08-19 02:54:00,
2013-08-18 16:59:00,76.2,67.3,29.95,NE,35,16.0,18.0,74,0.00,,,0.00,VWS V14.01,2013-08-19 02:59:00,
2013-08-18 17:04:00,76.1,67.2,29.94,NNE,23,14.0,14.0,74,0.00,,,0.00,VWS V14.01,2013-08-19 03:04:00,
2013-08-18 17:09:00,76.3,67.4,29.95,NE,35,4.0,7.0,74,0.00,,,0.00,VWS V14.01,2013-08-19 03:09:00,
2013-08-18 17:14:00,76.2,67.3,29.95,NNE,31,13.0,13.0,74,0.00,,,0.00,VWS V14.01,2013-08-19 03:14:00,
2013-08-18 17:19:00,76.0,67.1,29.95,NNE,12,8.0,11.0,74,0.00,,,0.00,VWS V14.01,2013-08-19 03:19:00,
2013-08-18 17:24:00,75.9,67.0,29.95,East,92,13.0,14.0,74,0.00,,,0.00,VWS V14.01,2013-08-19 03:24:00,
2013-08-18 17:29:00,75.5,67.0,29.95,NNE,25,14.0,18.0,75,0.00,,,0.00,VWS V14.01,2013-08-19 03:29:00,
2013-08-18 17:34:00,75.2,67.1,29.95,ENE,61,11.0,13.0,76,0.00,,,0.00,VWS V14.01,2013-08-19 03:34:00,
2013-08-18 17:39:00,75.0,67.3,29.95,NNE,14,15.0,15.0,77,0.00,,,0.00,VWS V14.01,2013-08-19 03:39:00,
2013-08-18 17:45:00,74.8,66.7,29.95,North,9,12.0,12.0,76,0.00,,,0.00,VWS V14.01,2013-08-19 03:45:00,
2013-08-18 17:50:00,74.7,67.4,29.95,ENE,57,8.0,11.0,78,0.00,,,0.00,VWS V14.01,2013-08-19 03:50:00,
2013-08-18 17:55:00,74.6,67.7,29.95,ENE,59,12.0,12.0,79,0.00,,,0.00,VWS V14.01,2013-08-19 03:55:00,
2013-08-18 18:00:00,74.4,68.2,29.96,ENE,68,17.0,18.0,81,0.00,,,0.00,VWS V14.01,2013-08-19 04:00:00,
2013-08-18 18:01:00,74.4,67.8,29.96,North,11,20.0,20.0,80,0.00,,,0.00,VWS V14.01,2013-08-19 04:01:00,
2013-08-18 18:06:00,74.3,67.7,29.96,NE,51,18.0,18.0,80,0.00,,,0.00,VWS V14.01,2013-08-19 04:06:00,
2013-08-18 18:11:00,74.4,68.2,29.96,NNE,26,9.0,12.0,81,0.00,,,0.00,VWS V14.01,2013-08-19 04:11:00,
2013-08-18 18:16:00,74.3,68.1,29.96,NE,38,13.0,13.0,81,0.00,,,0.00,VWS V14.01,2013-08-19 04:16:00,
2013-08-18 18:21:00,74.2,68.7,29.97,NNE,15,14.0,14.0,83,0.00,,,0.00,VWS V14.01,2013-08-19 04:21:00,
2013-08-18 18:26:00,74.1,68.6,29.97,NNE,33,9.0,9.0,83,0.00,,,0.00,VWS V14.01,2013-08-19 04:26:00,
2013-08-18 18:32:00,74.1,68.6,29.97,NNE,26,7.0,9.0,83,0.00,,,0.00,VWS V14.01,2013-08-19 04:32:00,
2013-08-18 18:37:00,73.9,68.1,29.97,NNE,23,13.0,13.0,82,0.00,,,0.00,VWS V14.01,2013-08-19 04:37:00,
2013-08-18 18:42:00,74.0,67.8,29.97,NNE,17,13.0,14.0,81,0.00,,,0.00,VWS V14.01,2013-08-19 04:42:00,
2013-08-18 18:47:00,73.9,67.7,29.97,NNE,14,11.0,11.0,81,0.00,,,0.00,VWS V14.01,2013-08-19 04:47:00,
2013-08-18 18:52:00,73.8,67.2,29.98,NNE,16,12.0,15.0,80,0.00,,,0.00,VWS V14.01,2013-08-19 04:52:00,
2013-08-18 18:57:00,73.8,66.9,29.98,NNE,16,16.0,16.0,79,0.00,,,0.00,VWS V14.01,2013-08-19 04:57:00,
2013-08-18 19:02:00,73.9,67.0,29.98,NNE,30,6.0,6.0,79,0.00,,,0.00,VWS V14.01,2013-08-19 05:02:00,
2013-08-18 19:07:00,73.8,66.9,29.99,ENE,69,5.0,8.0,79,0.00,,,0.00,VWS V14.01,2013-08-19 05:07:00,
2013-08-18 19:12:00,73.8,66.9,29.99,NNE,20,5.0,5.0,79,0.00,,,0.00,VWS V14.01,2013-08-19 05:12:00,
2013-08-18 19:17:00,73.7,66.8,29.99,North,7,14.0,14.0,79,0.00,,,0.00,VWS V14.01,2013-08-19 05:17:00,
2013-08-18 19:22:00,73.7,66.8,29.99,NE,54,8.0,8.0,79,0.00,,,0.00,VWS V14.01,2013-08-19 05:22:00,
2013-08-18 19:27:00,73.7,66.8,29.99,NNE,31,8.0,9.0,79,0.00,,,0.00,VWS V14.01,2013-08-19 05:27:00,
2013-08-18 19:32:00,73.7,66.8,29.99,North,357,10.0,10.0,79,0.00,,,0.00,VWS V14.01,2013-08-19 05:32:00,
2013-08-18 19:37:00,73.8,67.2,29.99,NNE,23,7.0,8.0,80,0.00,,,0.00,VWS V14.01,2013-08-19 05:37:00,
2013-08-18 19:42:00,73.8,66.9,29.99,NNE,12,6.0,6.0,79,0.00,,,0.00,VWS V14.01,2013-08-19 05:42:00,
2013-08-18 19:48:00,73.9,67.0,29.99,NE,44,7.0,14.0,79,0.00,,,0.00,VWS V14.01,2013-08-19 05:48:00,
2013-08-18 19:53:00,73.9,67.0,29.99,East,85,8.0,8.0,79,0.00,,,0.00,VWS V14.01,2013-08-19 05:53:00,
2013-08-18 19:58:00,73.8,66.9,29.99,NNE,14,6.0,6.0,79,0.00,,,0.00,VWS V14.01,2013-08-19 05:58:00,
2013-08-18 20:03:00,73.9,67.0,29.99,East,93,9.0,11.0,79,0.00,,,0.00,VWS V14.01,2013-08-19 06:03:00,
2013-08-18 20:08:00,73.9,67.0,29.99,NNE,31,9.0,11.0,79,0.00,,,0.00,VWS V14.01,2013-08-19 06:08:00,
2013-08-18 20:13:00,73.9,67.0,30.00,NNE,21,7.0,11.0,79,0.00,,,0.00,VWS V14.01,2013-08-19 06:13:00,
2013-08-18 20:18:00,73.9,67.0,30.00,ENE,75,9.0,9.0,79,0.00,,,0.00,VWS V14.01,2013-08-19 06:18:00,
2013-08-18 20:23:00,73.9,67.3,30.00,NE,51,6.0,7.0,80,0.00,,,0.00,VWS V14.01,2013-08-19 06:23:00,
2013-08-18 20:28:00,73.8,67.2,30.00,NNE,28,6.0,9.0,80,0.00,,,0.00,VWS V14.01,2013-08-19 06:28:00,
2013-08-18 20:33:00,73.9,67.3,30.00,NNE,23,5.0,5.0,80,0.00,,,0.00,VWS V14.01,2013-08-19 06:33:00,
2013-08-18 20:38:00,73.9,67.3,30.00,NE,43,12.0,12.0,80,0.00,,,0.00,VWS V14.01,2013-08-19 06:38:00,
2013-08-18 20:43:00,73.8,67.6,30.00,ENE,62,6.0,6.0,81,0.00,,,0.00,VWS V14.01,2013-08-19 06:43:00,
2013-08-18 20:48:00,73.7,67.5,30.01,NE,52,3.0,7.0,81,0.00,,,0.00,VWS V14.01,2013-08-19 06:48:00,
2013-08-18 20:53:00,73.7,67.5,30.01,NE,34,7.0,8.0,81,0.00,,,0.00,VWS V14.01,2013-08-19 06:53:00,
2013-08-18 20:58:00,73.7,67.5,30.01,NNE,30,10.0,10.0,81,0.00,,,0.00,VWS V14.01,2013-08-19 06:58:00,
2013-08-18 21:03:00,73.7,67.5,30.01,NE,47,12.0,12.0,81,0.00,,,0.00,VWS V14.01,2013-08-19 07:03:00,
2013-08-18 21:08:00,73.7,67.5,30.01,NNE,15,5.0,8.0,81,0.00,,,0.00,VWS V14.01,2013-08-19 07:08:00,
2013-08-18 21:13:00,73.7,67.5,30.02,NE,41,3.0,5.0,81,0.00,,,0.00,VWS V14.01,2013-08-19 07:13:00,
2013-08-18 21:18:00,73.7,67.5,30.01,ENE,68,8.0,11.0,81,0.00,,,0.00,VWS V14.01,2013-08-19 07:18:00,
2013-08-18 21:23:00,73.7,67.5,30.02,NE,37,11.0,11.0,81,0.00,,,0.00,VWS V14.01,2013-08-19 07:23:00,
2013-08-18 21:28:00,73.7,67.5,30.02,NE,38,8.0,8.0,81,0.00,,,0.00,VWS V14.01,2013-08-19 07:28:00,
2013-08-18 21:34:00,73.7,67.5,30.02,NE,46,5.0,5.0,81,0.00,,,0.00,VWS V14.01,2013-08-19 07:34:00,
2013-08-18 21:39:00,73.7,67.5,30.01,NNE,20,6.0,10.0,81,0.00,,,0.00,VWS V14.01,2013-08-19 07:39:00,
2013-08-18 21:44:00,73.7,67.5,30.01,NNE,30,8.0,8.0,81,0.00,,,0.00,VWS V14.01,2013-08-19 07:44:00,
2013-08-18 21:49:00,73.7,67.5,30.02,ENE,57,9.0,12.0,81,0.00,,,0.00,VWS V14.01,2013-08-19 07:49:00,
2013-08-18 21:54:00,73.7,67.5,30.01,NNE,30,6.0,8.0,81,0.00,,,0.00,VWS V14.01,2013-08-19 07:54:00,
2013-08-18 21:59:00,73.6,67.8,30.02,NNE,24,6.0,10.0,82,0.00,,,0.00,VWS V14.01,2013-08-19 07:59:00,
2013-08-18 22:04:00,73.6,67.8,30.02,NNE,20,14.0,14.0,82,0.00,,,0.00,VWS V14.01,2013-08-19 08:04:00,
2013-08-18 22:09:00,73.5,67.7,30.02,NE,47,7.0,8.0,82,0.00,,,0.00,VWS V14.01,2013-08-19 08:09:00,
2013-08-18 22:14:00,73.5,67.7,30.02,NNE,21,8.0,8.0,82,0.00,,,0.00,VWS V14.01,2013-08-19 08:14:00,
2013-08-18 22:19:00,73.5,67.7,30.02,NNE,14,11.0,11.0,82,0.00,,,0.00,VWS V14.01,2013-08-19 08:19:00,
2013-08-18 22:24:00,73.5,68.0,30.02,ENE,64,6.0,8.0,83,0.00,,,0.00,VWS V14.01,2013-08-19 08:24:00,
2013-08-18 22:28:00,73.4,67.6,30.03,NE,50,5.0,6.0,82,0.00,,,0.00,VWS V14.01,2013-08-19 08:28:00,
2013-08-18 22:34:00,73.4,67.6,30.03,ENE,57,8.0,9.0,82,0.00,,,0.00,VWS V14.01,2013-08-19 08:34:00,
2013-08-18 22:39:00,73.5,67.7,30.03,ENE,66,6.0,6.0,82,0.00,,,0.00,VWS V14.01,2013-08-19 08:39:00,
2013-08-18 22:44:00,73.5,67.7,30.03,NNE,31,8.0,11.0,82,0.00,,,0.00,VWS V14.01,2013-08-19 08:44:00,
2013-08-18 22:49:00,73.5,67.7,30.03,ENE,63,7.0,7.0,82,0.00,,,0.00,VWS V14.01,2013-08-19 08:49:00,
2013-08-18 22:54:00,73.4,67.9,30.03,NE,43,7.0,7.0,83,0.00,,,0.00,VWS V14.01,2013-08-19 08:54:00,
2013-08-18 22:58:00,73.3,67.8,30.03,NNE,26,8.0,8.0,83,0.00,,,0.00,VWS V14.01,2013-08-19 08:58:00,
2013-08-18 23:04:00,73.3,67.8,30.02,NE,39,6.0,6.0,83,0.00,,,0.00,VWS V14.01,2013-08-19 09:04:00,
2013-08-18 23:08:00,73.3,68.2,30.02,ENE,70,8.0,11.0,84,0.00,,,0.00,VWS V14.01,2013-08-19 09:08:00,
2013-08-18 23:13:00,73.2,68.1,30.02,East,90,6.0,8.0,84,0.00,,,0.00,VWS V14.01,2013-08-19 09:13:00,
2013-08-18 23:19:00,73.2,68.1,30.03,NNE,23,7.0,13.0,84,0.00,,,0.00,VWS V14.01,2013-08-19 09:19:00,
2013-08-18 23:24:00,73.2,68.1,30.02,NE,55,6.0,7.0,84,0.00,,,0.00,VWS V14.01,2013-08-19 09:24:00,
2013-08-18 23:29:00,73.1,68.0,30.02,East,80,4.0,5.0,84,0.00,,,0.00,VWS V14.01,2013-08-19 09:29:00,
2013-08-18 23:34:00,73.1,68.0,30.02,ENE,64,8.0,8.0,84,0.00,,,0.00,VWS V14.01,2013-08-19 09:34:00,
2013-08-18 23:39:00,73.0,67.9,30.02,ENE,59,7.0,7.0,84,0.00,,,0.00,VWS V14.01,2013-08-19 09:39:00,
2013-08-18 23:44:00,73.0,67.9,30.02,NE,51,5.0,7.0,84,0.00,,,0.00,VWS V14.01,2013-08-19 09:44:00,
2013-08-18 23:49:00,73.0,67.9,30.01,NE,47,9.0,9.0,84,0.00,,,0.00,VWS V14.01,2013-08-19 09:49:00,
2013-08-18 23:54:00,73.1,68.3,30.01,NE,38,3.0,5.0,85,0.00,,,0.00,VWS V14.01,2013-08-19 09:54:00,
2013-08-18 23:59:00,73.0,67.9,30.01,NNE,30,7.0,9.0,84,0.00,,,0.00,VWS V14.01,2013-08-19 09:59:00,